createdAt,value
2022-09-02T00:00:07.722Z,4.10
2022-09-02T00:03:11.059Z,3.43
2022-09-02T00:06:15.008Z,4.00
2022-09-02T00:09:21.435Z,3.97
2022-09-02T00:12:25.759Z,3.87
2022-09-02T00:15:28.900Z,3.87
2022-09-02T00:18:32.415Z,4.20
2022-09-02T00:21:36.298Z,4.00
2022-09-02T00:24:39.247Z,4.17
2022-09-02T00:27:43.285Z,3.70
2022-09-02T00:30:46.471Z,3.63
2022-09-02T00:33:51.852Z,3.70
2022-09-02T00:36:54.535Z,3.73
2022-09-02T00:39:57.827Z,3.53
2022-09-02T00:43:02.075Z,3.93
2022-09-02T00:46:05.948Z,3.87
2022-09-02T00:49:15.852Z,3.80
2022-09-02T00:52:22.275Z,3.63
2022-09-02T00:55:28.764Z,4.00
2022-09-02T00:58:36.351Z,3.47
2022-09-02T01:01:39.214Z,4.20
2022-09-02T01:04:43.070Z,3.93
2022-09-02T01:07:46.683Z,3.87
2022-09-02T01:10:49.717Z,4.27
2022-09-02T01:13:54.148Z,4.20
2022-09-02T01:17:01.006Z,4.20
2022-09-02T01:20:12.167Z,4.10
2022-09-02T01:23:17.528Z,4.13
2022-09-02T01:26:21.006Z,3.90
2022-09-02T01:29:25.761Z,4.30
2022-09-02T01:32:30.964Z,3.97
2022-09-02T01:35:33.842Z,4.73
2022-09-02T01:38:38.840Z,3.97
2022-09-02T01:41:41.662Z,4.47
2022-09-02T01:44:45.001Z,4.00
2022-09-02T01:47:47.711Z,4.27
2022-09-02T01:50:55.432Z,4.17
2022-09-02T01:53:59.569Z,4.40
2022-09-02T01:57:03.634Z,3.93
2022-09-02T02:00:08.954Z,4.00
2022-09-02T02:03:11.684Z,3.80
2022-09-02T02:06:17.786Z,3.90
2022-09-02T02:09:22.361Z,3.73
2022-09-02T02:12:25.653Z,4.33
2022-09-02T02:18:31.024Z,4.20
2022-09-02T02:21:34.681Z,4.57
2022-09-02T02:24:39.599Z,4.20
2022-09-02T02:27:43.732Z,4.23
2022-09-02T02:30:46.704Z,4.80
2022-09-02T02:33:49.423Z,4.40
2022-09-02T02:36:52.151Z,4.40
2022-09-02T02:39:57.459Z,4.13
2022-09-02T02:43:00.441Z,4.90
2022-09-02T02:46:03.496Z,4.87
2022-09-02T02:49:06.874Z,4.70
2022-09-02T02:52:11.434Z,4.40
2022-09-02T02:55:16.370Z,4.30
2022-09-02T02:58:19.356Z,4.50
2022-09-02T03:01:22.437Z,4.40
2022-09-02T03:04:25.196Z,4.57
2022-09-02T03:07:28.406Z,4.73
2022-09-02T03:10:33.446Z,4.63
2022-09-02T03:13:36.339Z,4.27
2022-09-02T03:16:39.355Z,4.43
2022-09-02T03:19:42.085Z,4.37
2022-09-02T03:22:45.665Z,4.50
2022-09-02T03:25:51.270Z,4.17
2022-09-02T03:28:56.127Z,4.60
2022-09-02T03:31:59.187Z,4.30
2022-09-02T03:35:03.292Z,4.23
2022-09-02T03:38:06.614Z,4.17
2022-09-02T03:41:10.686Z,4.17
2022-09-02T03:44:13.743Z,4.17
2022-09-02T03:47:18.055Z,4.23
2022-09-02T03:50:26.139Z,4.10
2022-09-02T03:53:29.111Z,4.07
2022-09-02T03:56:33.139Z,4.37
2022-09-02T03:59:36.577Z,4.30
2022-09-02T04:02:39.462Z,5.20
2022-09-02T04:05:47.196Z,4.60
2022-09-02T04:08:51.019Z,4.60
2022-09-02T04:11:55.764Z,5.10
2022-09-02T04:14:58.820Z,4.87
2022-09-02T04:18:01.491Z,4.30
2022-09-02T04:21:04.901Z,4.43
2022-09-02T04:24:09.477Z,4.50
2022-09-02T04:27:13.504Z,4.23
2022-09-02T04:30:17.660Z,4.27
2022-09-02T04:33:20.514Z,4.30
2022-09-02T04:36:24.330Z,4.70
2022-09-02T04:39:27.007Z,4.60
2022-09-02T04:42:31.149Z,4.37
2022-09-02T04:45:34.061Z,4.67
2022-09-02T04:48:38.422Z,4.83
2022-09-02T04:51:41.326Z,4.83
2022-09-02T04:54:44.055Z,4.60
2022-09-02T04:57:48.104Z,3.70
2022-09-02T05:00:51.116Z,3.97
2022-09-02T05:03:54.983Z,3.93
2022-09-02T05:07:01.945Z,3.77
2022-09-02T05:10:06.354Z,3.73
2022-09-02T05:13:10.495Z,3.77
2022-09-02T05:16:16.472Z,3.60
2022-09-02T05:19:19.656Z,3.77
2022-09-02T05:22:22.469Z,3.63
2022-09-02T05:25:25.298Z,3.63
2022-09-02T05:28:29.467Z,3.70
2022-09-02T05:31:32.173Z,4.37
2022-09-02T05:34:35.818Z,4.00
2022-09-02T05:37:38.567Z,4.30
2022-09-02T05:40:41.383Z,4.07
2022-09-02T05:43:45.731Z,4.30
2022-09-02T05:46:49.162Z,4.20
2022-09-02T05:49:52.364Z,4.13
2022-09-02T05:52:55.115Z,4.17
2022-09-02T05:55:58.883Z,4.60
2022-09-02T05:59:03.561Z,5.07
2022-09-02T06:02:07.034Z,3.97
2022-09-02T06:05:12.190Z,4.30
2022-09-02T06:08:15.280Z,3.83
2022-09-02T06:11:19.620Z,3.50
2022-09-02T06:14:25.979Z,3.40
2022-09-02T06:17:28.713Z,3.00
2022-09-02T06:20:32.564Z,3.37
2022-09-02T06:23:38.447Z,3.07
2022-09-02T06:26:42.053Z,3.07
2022-09-02T06:29:46.125Z,2.80
2022-09-02T06:32:50.606Z,2.73
2022-09-02T06:35:53.557Z,2.40
2022-09-02T06:38:58.189Z,2.70
2022-09-02T06:42:01.524Z,2.50
2022-09-02T06:45:06.398Z,2.00
2022-09-02T06:48:09.514Z,2.13
2022-09-02T06:51:17.724Z,1.97
2022-09-02T06:54:22.730Z,1.93
2022-09-02T06:57:29.154Z,1.67
2022-09-02T07:00:39.192Z,1.13
2022-09-02T07:03:59.734Z,1.50
2022-09-02T07:07:05.830Z,1.70
2022-09-02T07:10:11.019Z,1.43
2022-09-02T07:13:14.556Z,1.60
2022-09-02T07:16:25.975Z,1.63
2022-09-02T07:19:29.816Z,1.63
2022-09-02T07:22:32.539Z,1.63
2022-09-02T07:25:35.245Z,1.73
2022-09-02T07:28:37.962Z,1.53
2022-09-02T07:31:43.933Z,1.60
2022-09-02T07:34:47.292Z,1.60
2022-09-02T07:37:50.788Z,1.73
2022-09-02T07:40:56.959Z,1.90
2022-09-02T07:44:00.465Z,1.30
2022-09-02T07:47:05.074Z,1.40
2022-09-02T07:50:18.963Z,1.47
2022-09-02T07:53:23.844Z,1.20
2022-09-02T07:56:26.901Z,1.50
2022-09-02T07:59:29.850Z,0.70
2022-09-02T08:02:34.948Z,1.50
2022-09-02T08:05:38.109Z,1.10
2022-09-02T08:08:41.036Z,1.40
2022-09-02T08:11:46.494Z,1.27
2022-09-02T08:14:49.291Z,1.53
2022-09-02T08:17:53.697Z,1.20
2022-09-02T08:20:56.405Z,1.20
2022-09-02T08:24:00.287Z,1.40
2022-09-02T08:27:03.313Z,1.30
2022-09-02T08:30:09.979Z,1.30
2022-09-02T08:33:14.424Z,1.10
2022-09-02T08:36:17.263Z,1.30
2022-09-02T08:39:19.992Z,1.27
2022-09-02T08:42:24.629Z,1.30
2022-09-02T08:45:34.397Z,1.57
2022-09-02T08:48:45.253Z,1.30
2022-09-02T08:51:53.652Z,1.50
2022-09-02T08:54:57.240Z,1.30
2022-09-02T08:58:01.982Z,1.20
2022-09-02T09:01:14.641Z,1.10
2022-09-02T09:04:35.842Z,1.43
2022-09-02T09:07:51.541Z,1.47
2022-09-02T09:11:00.724Z,1.20
2022-09-02T09:14:13.982Z,1.20
2022-09-02T09:17:27.646Z,1.20
2022-09-02T09:20:34.251Z,1.20
2022-09-02T09:23:39.398Z,1.20
2022-09-02T09:26:43.365Z,1.67
2022-09-02T09:29:46.497Z,1.63
2022-09-02T09:32:54.687Z,1.10
2022-09-02T09:35:59.199Z,0.90
2022-09-02T09:39:19.133Z,1.30
2022-09-02T09:42:33.205Z,0.90
2022-09-02T09:45:37.686Z,1.23
2022-09-02T09:48:51.506Z,1.20
2022-09-02T09:51:57.064Z,1.10
2022-09-02T09:55:13.806Z,1.00
2022-09-02T09:58:16.769Z,1.10
2022-09-02T10:01:22.896Z,1.00
2022-09-02T10:04:46.443Z,1.00
2022-09-02T10:07:57.325Z,0.93
2022-09-02T10:11:03.002Z,0.90
2022-09-02T10:14:08.217Z,1.20
2022-09-02T10:17:28.464Z,0.90
2022-09-02T10:21:11.535Z,1.20
2022-09-02T10:24:39.054Z,0.90
2022-09-02T10:27:50.526Z,0.87
2022-09-02T10:31:00.922Z,0.80
2022-09-02T10:34:17.621Z,1.00
2022-09-02T10:37:23.181Z,0.93
2022-09-02T10:40:37.821Z,1.13
2022-09-02T10:43:59.339Z,0.63
2022-09-02T10:47:05.286Z,0.80
2022-09-02T10:50:18.451Z,0.90
2022-09-02T10:53:33.509Z,0.93
2022-09-02T10:56:46.069Z,0.90
2022-09-02T10:59:55.500Z,0.90
2022-09-02T11:03:12.461Z,0.90
2022-09-02T11:06:21.960Z,0.93
2022-09-02T11:09:33.375Z,0.80
2022-09-02T11:12:41.628Z,1.10
2022-09-02T11:15:48.602Z,0.77
2022-09-02T11:18:58.722Z,0.70
2022-09-02T11:22:09.253Z,0.90
2022-09-02T11:25:16.612Z,1.10
2022-09-02T11:28:33.253Z,0.80
2022-09-02T11:31:39.535Z,1.10
2022-09-02T11:34:47.008Z,0.80
2022-09-02T11:37:53.681Z,0.80
2022-09-02T11:41:34.249Z,0.87
2022-09-02T11:45:10.408Z,0.77
2022-09-02T11:48:40.307Z,0.90
2022-09-02T11:52:05.206Z,0.80
2022-09-02T11:55:16.605Z,0.90
2022-09-02T11:58:37.753Z,0.70
2022-09-02T12:01:50.810Z,1.30
2022-09-02T12:05:17.431Z,0.70
2022-09-02T12:08:59.148Z,1.00
2022-09-02T12:12:02.002Z,0.77
2022-09-02T12:15:16.924Z,0.63
2022-09-02T12:18:31.968Z,0.80
2022-09-02T12:21:36.938Z,0.80
2022-09-02T12:24:52.447Z,1.17
2022-09-02T12:28:19.053Z,0.73
2022-09-02T12:31:42.797Z,0.90
2022-09-02T12:34:57.583Z,0.90
2022-09-02T12:38:23.599Z,1.00
2022-09-02T12:41:32.592Z,0.90
2022-09-02T12:44:44.099Z,0.93
2022-09-02T12:47:59.074Z,5.17
2022-09-02T12:51:03.654Z,1.00
2022-09-02T12:54:07.493Z,1.20
2022-09-02T12:57:11.456Z,1.20
2022-09-02T13:00:16.616Z,1.00
2022-09-02T13:03:35.463Z,0.97
2022-09-02T13:07:14.058Z,0.80
2022-09-02T13:10:39.017Z,0.83
2022-09-02T13:14:15.992Z,1.00
2022-09-02T13:17:37.346Z,0.80
2022-09-02T13:21:11.380Z,0.87
2022-09-02T13:25:06.458Z,0.80
2022-09-02T13:28:34.066Z,0.80
2022-09-02T13:31:36.825Z,0.90
2022-09-02T13:34:43.723Z,1.00
2022-09-02T13:37:55.861Z,0.97
2022-09-02T13:40:59.465Z,0.70
2022-09-02T13:44:11.962Z,0.70
2022-09-02T13:47:17.378Z,0.90
2022-09-02T13:50:22.875Z,1.03
2022-09-02T13:54:04.903Z,0.97
2022-09-02T13:56:52.658Z,0.80
2022-09-02T13:59:58.068Z,0.80
2022-09-02T14:03:04.381Z,0.80
2022-09-02T14:06:08.174Z,0.80
2022-09-02T14:09:21.277Z,0.90
2022-09-02T14:12:24.377Z,1.00
2022-09-02T14:15:30.361Z,0.70
2022-09-02T14:18:33.099Z,1.33
2022-09-02T14:21:37.090Z,1.00
2022-09-02T14:24:42.073Z,0.90
2022-09-02T14:27:50.383Z,0.83
2022-09-02T14:31:00.153Z,0.90
2022-09-02T14:34:04.515Z,0.80
2022-09-02T14:37:20.784Z,1.03
2022-09-02T14:40:34.930Z,0.93
2022-09-02T14:43:44.584Z,1.00
2022-09-02T14:46:51.454Z,0.80
2022-09-02T14:49:57.145Z,0.83
2022-09-02T14:53:04.767Z,1.33
2022-09-02T14:56:08.356Z,0.80
2022-09-02T14:59:11.220Z,0.90
2022-09-02T15:02:24.084Z,0.90
2022-09-02T15:05:26.924Z,0.83
2022-09-02T15:08:29.684Z,1.00
2022-09-02T15:11:32.824Z,0.83
2022-09-02T15:14:35.739Z,1.00
2022-09-02T15:17:40.134Z,0.57
2022-09-02T15:20:42.884Z,0.80
2022-09-02T15:23:51.055Z,1.00
2022-09-02T15:26:54.237Z,0.80
2022-09-02T15:29:57.208Z,0.80
2022-09-02T15:33:05.715Z,0.70
2022-09-02T15:36:12.197Z,0.80
2022-09-02T15:39:15.743Z,0.80
2022-09-02T15:42:18.794Z,0.77
2022-09-02T15:45:21.538Z,1.10
2022-09-02T15:48:26.310Z,0.80
2022-09-02T15:51:29.252Z,0.90
2022-09-02T15:54:32.737Z,1.10
2022-09-02T15:57:35.410Z,0.90
2022-09-02T16:00:38.357Z,0.80
2022-09-02T16:03:42.462Z,0.90
2022-09-02T16:06:49.122Z,0.80
2022-09-02T16:09:51.830Z,0.80
2022-09-02T16:12:54.561Z,0.77
2022-09-02T16:16:01.864Z,0.73
2022-09-02T16:19:07.281Z,0.80
2022-09-02T16:22:09.993Z,0.77
2022-09-02T16:25:12.685Z,0.93
2022-09-02T16:28:15.916Z,0.70
2022-09-02T16:31:21.277Z,0.87
2022-09-02T16:34:25.587Z,0.83
2022-09-02T16:37:28.548Z,0.67
2022-09-02T16:40:31.307Z,1.00
2022-09-02T16:43:34.496Z,0.90
2022-09-02T16:46:41.594Z,0.90
2022-09-02T16:49:46.519Z,0.80
2022-09-02T16:52:49.223Z,0.70
2022-09-02T16:55:51.893Z,0.90
2022-09-02T16:58:55.327Z,0.93
2022-09-02T17:01:58.183Z,0.80
2022-09-02T17:05:02.627Z,0.80
2022-09-02T17:08:05.419Z,0.90
2022-09-02T17:11:12.680Z,0.97
2022-09-02T17:14:17.227Z,0.70
2022-09-02T17:17:20.075Z,0.90
2022-09-02T17:20:24.767Z,0.80
2022-09-02T17:23:27.602Z,0.90
2022-09-02T17:26:32.860Z,0.87
2022-09-02T17:29:51.343Z,0.90
2022-09-02T17:32:56.593Z,0.80
2022-09-02T17:36:01.687Z,1.37
2022-09-02T17:39:08.646Z,0.97
2022-09-02T17:42:10.461Z,1.07
2022-09-02T17:45:13.202Z,0.93
2022-09-02T17:48:45.184Z,0.93
2022-09-02T17:51:42.265Z,0.90
2022-09-02T17:54:47.666Z,1.20
2022-09-02T17:58:04.495Z,1.20
2022-09-02T18:01:11.332Z,1.30
2022-09-02T18:04:26.856Z,0.90
2022-09-02T18:07:37.330Z,1.47
2022-09-02T18:10:51.884Z,1.00
2022-09-02T18:14:10.521Z,1.20
2022-09-02T18:17:23.488Z,1.57
2022-09-02T18:20:40.008Z,0.87
2022-09-02T18:23:58.732Z,1.03
2022-09-02T18:27:12.312Z,1.10
2022-09-02T18:30:21.342Z,0.97
2022-09-02T18:33:40.722Z,0.97
2022-09-02T18:36:50.934Z,1.10
2022-09-02T18:40:11.295Z,0.80
2022-09-02T18:43:22.110Z,1.13
2022-09-02T18:46:29.024Z,1.20
2022-09-02T18:49:34.904Z,1.23
2022-09-02T18:52:38.117Z,1.00
2022-09-02T18:55:45.099Z,1.00
2022-09-02T18:58:50.365Z,0.90
2022-09-02T19:01:56.438Z,0.80
2022-09-02T19:04:59.594Z,0.80
2022-09-02T19:08:24.014Z,0.80
2022-09-02T19:11:29.215Z,1.00
2022-09-02T19:14:32.087Z,0.90
2022-09-02T19:17:34.820Z,1.07
2022-09-02T19:20:38.722Z,1.00
2022-09-02T19:23:41.496Z,1.00
2022-09-02T19:26:46.943Z,0.80
2022-09-02T19:29:52.935Z,0.93
2022-09-02T19:33:01.199Z,0.97
2022-09-02T19:36:04.113Z,1.00
2022-09-02T19:39:08.181Z,0.80
2022-09-02T19:42:12.466Z,0.80
2022-09-02T19:45:16.795Z,0.87
2022-09-02T19:48:20.725Z,1.20
2022-09-02T19:51:27.176Z,0.87
2022-09-02T19:54:30.270Z,0.90
2022-09-02T19:57:34.694Z,0.90
2022-09-02T20:00:37.664Z,0.83
2022-09-02T20:03:40.545Z,1.00
2022-09-02T20:06:43.341Z,0.70
2022-09-02T20:09:46.789Z,0.80
2022-09-02T20:12:51.886Z,0.70
2022-09-02T20:15:57.005Z,0.90
2022-09-02T20:18:59.862Z,0.80
2022-09-02T20:22:02.790Z,0.80
2022-09-02T20:25:06.150Z,0.70
2022-09-02T20:28:20.169Z,0.60
2022-09-02T20:31:43.413Z,0.87
2022-09-02T20:34:57.292Z,1.10
2022-09-02T20:38:11.647Z,0.80
2022-09-02T20:41:27.932Z,0.70
2022-09-02T20:44:58.377Z,1.00
2022-09-02T20:48:14.592Z,1.00
2022-09-02T20:51:23.022Z,0.90
2022-09-02T20:54:40.255Z,1.03
2022-09-02T20:58:16.451Z,1.00
2022-09-02T21:01:26.159Z,0.70
2022-09-02T21:04:34.028Z,1.17
2022-09-02T21:07:45.316Z,0.80
2022-09-02T21:10:52.906Z,0.80
2022-09-02T21:14:03.567Z,1.00
2022-09-02T21:17:12.175Z,1.00
2022-09-02T21:20:20.748Z,0.87
2022-09-02T21:23:28.410Z,0.80
2022-09-02T21:26:40.746Z,0.90
2022-09-02T21:29:50.748Z,0.90
2022-09-02T21:32:59.731Z,0.93
2022-09-02T21:36:05.288Z,0.90
2022-09-02T21:39:15.567Z,1.00
2022-09-02T21:42:27.461Z,1.10
2022-09-02T21:45:40.534Z,0.80
2022-09-02T21:48:57.553Z,1.10
2022-09-02T21:52:08.697Z,0.90
2022-09-02T21:55:20.943Z,1.00
2022-09-02T21:58:50.398Z,0.80
2022-09-02T22:01:57.988Z,0.90
2022-09-02T22:05:13.785Z,0.90
2022-09-02T22:08:26.591Z,1.00
2022-09-02T22:11:36.858Z,1.00
2022-09-02T22:14:48.138Z,1.03
2022-09-02T22:17:55.501Z,0.97
2022-09-02T22:21:03.846Z,1.03
2022-09-02T22:24:07.124Z,1.10
2022-09-02T22:27:16.493Z,1.00
2022-09-02T22:30:19.970Z,1.00
2022-09-02T22:33:27.027Z,0.90
2022-09-02T22:36:43.154Z,0.87
2022-09-02T22:39:51.496Z,0.87
2022-09-02T22:43:01.350Z,1.00
2022-09-02T22:46:33.005Z,0.90
2022-09-02T22:50:00.366Z,1.00
2022-09-02T22:53:04.417Z,1.00
2022-09-02T22:56:11.651Z,1.23
2022-09-02T22:59:26.362Z,1.33
2022-09-02T23:02:36.246Z,1.60
2022-09-02T23:05:50.485Z,1.40
2022-09-02T23:08:55.842Z,1.30
2022-09-02T23:12:07.410Z,1.30
2022-09-02T23:15:22.838Z,1.40
2022-09-02T23:18:37.717Z,1.20
2022-09-02T23:21:48.967Z,1.17
2022-09-02T23:25:15.234Z,1.00
2022-09-02T23:28:20.830Z,1.30
2022-09-02T23:31:32.800Z,1.10
2022-09-02T23:34:51.468Z,1.00
2022-09-02T23:38:07.669Z,1.00
2022-09-02T23:41:12.893Z,1.20
2022-09-02T23:44:16.681Z,1.00
2022-09-02T23:47:37.505Z,1.10
2022-09-02T23:50:49.973Z,1.03
2022-09-02T23:54:08.291Z,1.20
2022-09-02T23:57:28.220Z,1.00
